sensor_id;sensor_type;location;lat;lon;timestamp;temperature;humidity
19449;DHT22;9863;49.404;8.246;2023-02-01T00:01:28;5.10;99.90
19449;DHT22;9863;49.404;8.246;2023-02-01T00:03:55;5.10;99.90
19449;DHT22;9863;49.404;8.246;2023-02-01T00:06:23;5.10;99.90
19449;DHT22;9863;49.404;8.246;2023-02-01T00:08:53;5.10;99.90
19449;DHT22;9863;49.404;8.246;2023-02-01T00:11:22;5.10;99.90
19449;DHT22;9863;49.404;8.246;2023-02-01T00:13:50;5.10;99.90
19449;DHT22;9863;49.404;8.246;2023-02-01T00:16:23;5.10;99.90
19449;DHT22;9863;49.404;8.246;2023-02-01T00:18:56;5.10;99.90
19449;DHT22;9863;49.404;8.246;2023-02-01T00:21:31;5.10;99.90
19449;DHT22;9863;49.404;8.246;2023-02-01T00:23:59;5.20;99.90
19449;DHT22;9863;49.404;8.246;2023-02-01T00:26:33;5.20;99.90
19449;DHT22;9863;49.404;8.246;2023-02-01T00:29:05;5.10;99.90
19449;DHT22;9863;49.404;8.246;2023-02-01T00:31:35;5.10;99.90
19449;DHT22;9863;49.404;8.246;2023-02-01T00:34:03;5.10;99.90
19449;DHT22;9863;49.404;8.246;2023-02-01T00:36:30;5.30;99.90
19449;DHT22;9863;49.404;8.246;2023-02-01T00:38:58;5.10;99.90
19449;DHT22;9863;49.404;8.246;2023-02-01T00:41:25;5.10;99.90
19449;DHT22;9863;49.404;8.246;2023-02-01T00:43:52;5.10;99.90
19449;DHT22;9863;49.404;8.246;2023-02-01T00:46:20;5.10;99.90
19449;DHT22;9863;49.404;8.246;2023-02-01T00:48:49;5.10;99.90
19449;DHT22;9863;49.404;8.246;2023-02-01T00:51:19;5.10;99.90
19449;DHT22;9863;49.404;8.246;2023-02-01T00:53:48;5.10;99.90
19449;DHT22;9863;49.404;8.246;2023-02-01T00:56:15;5.10;99.90
19449;DHT22;9863;49.404;8.246;2023-02-01T00:58:43;5.30;99.90
19449;DHT22;9863;49.404;8.246;2023-02-01T01:03:51;5.10;99.90
19449;DHT22;9863;49.404;8.246;2023-02-01T01:06:23;5.10;99.90
19449;DHT22;9863;49.404;8.246;2023-02-01T01:09:02;5.20;99.90
19449;DHT22;9863;49.404;8.246;2023-02-01T01:11:33;5.20;99.90
19449;DHT22;9863;49.404;8.246;2023-02-01T01:14:03;5.20;99.90
19449;DHT22;9863;49.404;8.246;2023-02-01T01:16:31;5.20;99.90
19449;DHT22;9863;49.404;8.246;2023-02-01T01:18:59;5.20;99.90
19449;DHT22;9863;49.404;8.246;2023-02-01T01:21:27;5.20;99.90
19449;DHT22;9863;49.404;8.246;2023-02-01T01:23:55;5.20;99.90
19449;DHT22;9863;49.404;8.246;2023-02-01T01:26:26;5.30;99.90
19449;DHT22;9863;49.404;8.246;2023-02-01T01:28:56;5.20;99.90
19449;DHT22;9863;49.404;8.246;2023-02-01T01:31:24;5.20;99.90
19449;DHT22;9863;49.404;8.246;2023-02-01T01:33:54;5.30;99.90
19449;DHT22;9863;49.404;8.246;2023-02-01T01:36:23;5.20;99.90
19449;DHT22;9863;49.404;8.246;2023-02-01T01:38:51;5.20;99.90
19449;DHT22;9863;49.404;8.246;2023-02-01T01:41:21;5.40;99.90
19449;DHT22;9863;49.404;8.246;2023-02-01T01:44:05;5.20;99.90
19449;DHT22;9863;49.404;8.246;2023-02-01T01:46:38;5.20;99.90
19449;DHT22;9863;49.404;8.246;2023-02-01T01:49:17;5.20;99.90
19449;DHT22;9863;49.404;8.246;2023-02-01T01:51:51;5.30;99.90
19449;DHT22;9863;49.404;8.246;2023-02-01T01:54:34;5.10;99.90
19449;DHT22;9863;49.404;8.246;2023-02-01T01:57:06;5.20;99.90
19449;DHT22;9863;49.404;8.246;2023-02-01T01:59:38;5.20;99.90
19449;DHT22;9863;49.404;8.246;2023-02-01T02:02:06;5.20;99.90
19449;DHT22;9863;49.404;8.246;2023-02-01T02:04:34;5.20;99.90
19449;DHT22;9863;49.404;8.246;2023-02-01T02:07:10;5.20;99.90
19449;DHT22;9863;49.404;8.246;2023-02-01T02:09:39;5.20;99.90
19449;DHT22;9863;49.404;8.246;2023-02-01T02:12:20;5.20;99.90
19449;DHT22;9863;49.404;8.246;2023-02-01T02:14:48;5.20;99.90
19449;DHT22;9863;49.404;8.246;2023-02-01T02:34:31;5.40;99.90
19449;DHT22;9863;49.404;8.246;2023-02-01T02:46:08;5.60;99.90
19449;DHT22;9863;49.404;8.246;2023-02-01T02:49:09;5.70;99.90
19449;DHT22;9863;49.404;8.246;2023-02-01T02:51:46;5.70;99.90
19449;DHT22;9863;49.404;8.246;2023-02-01T02:54:40;5.80;99.90
19449;DHT22;9863;49.404;8.246;2023-02-01T02:57:30;5.80;99.90
19449;DHT22;9863;49.404;8.246;2023-02-01T03:00:22;5.80;99.90
19449;DHT22;9863;49.404;8.246;2023-02-01T03:03:13;5.80;99.90
19449;DHT22;9863;49.404;8.246;2023-02-01T03:06:00;5.80;99.90
19449;DHT22;9863;49.404;8.246;2023-02-01T03:08:29;5.80;99.90
19449;DHT22;9863;49.404;8.246;2023-02-01T03:11:07;5.80;99.90
19449;DHT22;9863;49.404;8.246;2023-02-01T03:13:45;5.80;99.90
19449;DHT22;9863;49.404;8.246;2023-02-01T03:17:03;5.80;99.90
19449;DHT22;9863;49.404;8.246;2023-02-01T03:19:29;5.80;99.90
19449;DHT22;9863;49.404;8.246;2023-02-01T03:22:03;5.70;99.90
19449;DHT22;9863;49.404;8.246;2023-02-01T03:24:41;5.70;99.90
19449;DHT22;9863;49.404;8.246;2023-02-01T03:30:21;5.80;99.90
19449;DHT22;9863;49.404;8.246;2023-02-01T03:32:54;5.80;99.90
19449;DHT22;9863;49.404;8.246;2023-02-01T03:35:54;5.80;99.90
19449;DHT22;9863;49.404;8.246;2023-02-01T03:46:39;5.80;99.90
19449;DHT22;9863;49.404;8.246;2023-02-01T03:49:39;5.80;99.90
19449;DHT22;9863;49.404;8.246;2023-02-01T03:52:11;5.80;99.90
19449;DHT22;9863;49.404;8.246;2023-02-01T03:54:42;5.90;99.90
19449;DHT22;9863;49.404;8.246;2023-02-01T03:57:14;5.80;99.90
19449;DHT22;9863;49.404;8.246;2023-02-01T03:59:45;5.90;99.90
19449;DHT22;9863;49.404;8.246;2023-02-01T04:02:12;5.90;99.90
19449;DHT22;9863;49.404;8.246;2023-02-01T04:04:39;5.90;99.90
19449;DHT22;9863;49.404;8.246;2023-02-01T04:07:06;5.90;99.90
19449;DHT22;9863;49.404;8.246;2023-02-01T04:09:33;6.00;99.90
19449;DHT22;9863;49.404;8.246;2023-02-01T04:12:00;6.00;99.90
19449;DHT22;9863;49.404;8.246;2023-02-01T04:14:27;6.00;99.90
19449;DHT22;9863;49.404;8.246;2023-02-01T04:16:54;6.00;99.90
19449;DHT22;9863;49.404;8.246;2023-02-01T04:19:21;5.90;99.90
19449;DHT22;9863;49.404;8.246;2023-02-01T04:21:48;6.00;99.90
19449;DHT22;9863;49.404;8.246;2023-02-01T04:24:15;5.90;99.90
19449;DHT22;9863;49.404;8.246;2023-02-01T04:26:42;6.00;99.90
19449;DHT22;9863;49.404;8.246;2023-02-01T04:29:10;6.00;99.90
19449;DHT22;9863;49.404;8.246;2023-02-01T04:31:37;6.00;99.90
19449;DHT22;9863;49.404;8.246;2023-02-01T04:34:04;5.80;99.90
19449;DHT22;9863;49.404;8.246;2023-02-01T04:36:31;5.70;99.90
19449;DHT22;9863;49.404;8.246;2023-02-01T04:38:58;5.80;99.90
19449;DHT22;9863;49.404;8.246;2023-02-01T04:41:25;5.80;99.90
19449;DHT22;9863;49.404;8.246;2023-02-01T04:43:52;5.90;99.90
19449;DHT22;9863;49.404;8.246;2023-02-01T04:46:19;5.90;99.90
19449;DHT22;9863;49.404;8.246;2023-02-01T04:48:46;5.80;99.90
19449;DHT22;9863;49.404;8.246;2023-02-01T04:51:13;5.90;99.90
19449;DHT22;9863;49.404;8.246;2023-02-01T04:53:41;6.00;99.90
19449;DHT22;9863;49.404;8.246;2023-02-01T04:56:08;6.10;99.90
19449;DHT22;9863;49.404;8.246;2023-02-01T04:58:36;6.10;99.90
19449;DHT22;9863;49.404;8.246;2023-02-01T05:01:04;6.20;99.90
19449;DHT22;9863;49.404;8.246;2023-02-01T05:03:32;6.20;99.90
19449;DHT22;9863;49.404;8.246;2023-02-01T05:06:00;6.20;99.90
19449;DHT22;9863;49.404;8.246;2023-02-01T05:08:27;6.10;99.90
19449;DHT22;9863;49.404;8.246;2023-02-01T05:10:55;6.20;99.90
19449;DHT22;9863;49.404;8.246;2023-02-01T05:13:22;6.20;99.90
19449;DHT22;9863;49.404;8.246;2023-02-01T05:16:07;6.20;99.90
19449;DHT22;9863;49.404;8.246;2023-02-01T05:18:34;6.10;99.90
19449;DHT22;9863;49.404;8.246;2023-02-01T05:21:01;6.10;99.90
19449;DHT22;9863;49.404;8.246;2023-02-01T05:23:28;6.10;99.90
19449;DHT22;9863;49.404;8.246;2023-02-01T05:26:00;6.10;99.90
19449;DHT22;9863;49.404;8.246;2023-02-01T05:28:27;6.10;99.90
19449;DHT22;9863;49.404;8.246;2023-02-01T05:30:55;6.00;99.90
19449;DHT22;9863;49.404;8.246;2023-02-01T05:33:22;5.90;99.90
19449;DHT22;9863;49.404;8.246;2023-02-01T05:35:49;5.90;99.90
19449;DHT22;9863;49.404;8.246;2023-02-01T05:38:17;5.80;99.90
19449;DHT22;9863;49.404;8.246;2023-02-01T05:43:16;5.80;99.90
19449;DHT22;9863;49.404;8.246;2023-02-01T05:45:43;5.80;99.90
19449;DHT22;9863;49.404;8.246;2023-02-01T05:48:10;5.80;99.90
19449;DHT22;9863;49.404;8.246;2023-02-01T05:50:37;5.80;99.90
19449;DHT22;9863;49.404;8.246;2023-02-01T05:53:04;5.70;99.90
19449;DHT22;9863;49.404;8.246;2023-02-01T05:55:32;5.70;99.90
19449;DHT22;9863;49.404;8.246;2023-02-01T05:57:59;5.70;99.90
19449;DHT22;9863;49.404;8.246;2023-02-01T06:00:26;5.60;99.90
19449;DHT22;9863;49.404;8.246;2023-02-01T06:02:53;5.60;99.90
19449;DHT22;9863;49.404;8.246;2023-02-01T06:05:21;5.70;99.90
19449;DHT22;9863;49.404;8.246;2023-02-01T06:07:48;5.70;99.90
19449;DHT22;9863;49.404;8.246;2023-02-01T06:10:17;5.70;99.90
19449;DHT22;9863;49.404;8.246;2023-02-01T06:12:44;5.70;99.90
19449;DHT22;9863;49.404;8.246;2023-02-01T06:15:13;5.70;99.90
19449;DHT22;9863;49.404;8.246;2023-02-01T06:17:44;5.70;99.90
19449;DHT22;9863;49.404;8.246;2023-02-01T06:20:13;5.70;99.90
19449;DHT22;9863;49.404;8.246;2023-02-01T06:22:41;5.60;99.90
19449;DHT22;9863;49.404;8.246;2023-02-01T06:25:09;5.60;99.90
19449;DHT22;9863;49.404;8.246;2023-02-01T06:27:37;5.70;99.90
19449;DHT22;9863;49.404;8.246;2023-02-01T06:30:05;5.70;99.90
19449;DHT22;9863;49.404;8.246;2023-02-01T06:32:33;5.50;99.90
19449;DHT22;9863;49.404;8.246;2023-02-01T06:35:00;5.30;99.90
19449;DHT22;9863;49.404;8.246;2023-02-01T06:39:56;5.80;99.90
19449;DHT22;9863;49.404;8.246;2023-02-01T06:42:23;5.80;99.90
19449;DHT22;9863;49.404;8.246;2023-02-01T06:44:50;5.90;99.90
19449;DHT22;9863;49.404;8.246;2023-02-01T06:47:17;5.80;99.90
19449;DHT22;9863;49.404;8.246;2023-02-01T06:49:44;5.80;99.90
19449;DHT22;9863;49.404;8.246;2023-02-01T06:52:11;5.70;99.90
19449;DHT22;9863;49.404;8.246;2023-02-01T06:54:38;5.80;99.90
19449;DHT22;9863;49.404;8.246;2023-02-01T06:57:05;5.80;99.90
19449;DHT22;9863;49.404;8.246;2023-02-01T06:59:32;5.70;99.90
19449;DHT22;9863;49.404;8.246;2023-02-01T07:01:59;5.70;99.90
19449;DHT22;9863;49.404;8.246;2023-02-01T07:04:26;5.70;99.90
19449;DHT22;9863;49.404;8.246;2023-02-01T07:06:53;5.70;99.90
19449;DHT22;9863;49.404;8.246;2023-02-01T07:09:20;5.80;99.90
19449;DHT22;9863;49.404;8.246;2023-02-01T07:11:47;5.80;99.90
19449;DHT22;9863;49.404;8.246;2023-02-01T07:14:14;5.70;99.90
19449;DHT22;9863;49.404;8.246;2023-02-01T07:16:41;5.70;99.90
19449;DHT22;9863;49.404;8.246;2023-02-01T07:19:11;5.70;99.90
19449;DHT22;9863;49.404;8.246;2023-02-01T07:21:38;5.50;99.90
19449;DHT22;9863;49.404;8.246;2023-02-01T07:24:06;5.40;99.90
19449;DHT22;9863;49.404;8.246;2023-02-01T07:26:33;5.30;99.90
19449;DHT22;9863;49.404;8.246;2023-02-01T07:29:00;5.30;99.90
19449;DHT22;9863;49.404;8.246;2023-02-01T07:31:27;5.40;99.90
19449;DHT22;9863;49.404;8.246;2023-02-01T07:33:55;5.40;99.90
19449;DHT22;9863;49.404;8.246;2023-02-01T07:36:24;5.50;99.90
19449;DHT22;9863;49.404;8.246;2023-02-01T07:38:51;5.50;99.90
19449;DHT22;9863;49.404;8.246;2023-02-01T07:41:22;5.60;99.90
19449;DHT22;9863;49.404;8.246;2023-02-01T07:43:52;5.40;99.90
19449;DHT22;9863;49.404;8.246;2023-02-01T07:46:19;5.40;99.90
19449;DHT22;9863;49.404;8.246;2023-02-01T07:48:47;5.50;99.90
19449;DHT22;9863;49.404;8.246;2023-02-01T07:51:15;5.40;99.90
19449;DHT22;9863;49.404;8.246;2023-02-01T07:53:44;5.40;99.90
19449;DHT22;9863;49.404;8.246;2023-02-01T07:56:19;5.30;99.90
19449;DHT22;9863;49.404;8.246;2023-02-01T07:58:49;5.30;99.90
19449;DHT22;9863;49.404;8.246;2023-02-01T08:01:19;5.20;99.90
19449;DHT22;9863;49.404;8.246;2023-02-01T08:04:00;5.10;99.90
19449;DHT22;9863;49.404;8.246;2023-02-01T08:06:30;5.10;99.90
19449;DHT22;9863;49.404;8.246;2023-02-01T08:08:59;5.10;99.90
19449;DHT22;9863;49.404;8.246;2023-02-01T08:11:26;5.20;99.90
19449;DHT22;9863;49.404;8.246;2023-02-01T08:13:54;5.30;99.90
19449;DHT22;9863;49.404;8.246;2023-02-01T08:16:22;5.40;99.90
19449;DHT22;9863;49.404;8.246;2023-02-01T08:18:50;5.50;99.90
19449;DHT22;9863;49.404;8.246;2023-02-01T08:21:20;5.50;99.90
19449;DHT22;9863;49.404;8.246;2023-02-01T08:23:49;5.60;99.90
19449;DHT22;9863;49.404;8.246;2023-02-01T08:26:21;5.60;99.90
19449;DHT22;9863;49.404;8.246;2023-02-01T08:28:55;5.70;99.90
19449;DHT22;9863;49.404;8.246;2023-02-01T08:31:24;5.80;99.90
19449;DHT22;9863;49.404;8.246;2023-02-01T08:33:57;5.70;99.90
19449;DHT22;9863;49.404;8.246;2023-02-01T08:36:29;5.70;99.90
19449;DHT22;9863;49.404;8.246;2023-02-01T08:38:57;5.70;99.90
19449;DHT22;9863;49.404;8.246;2023-02-01T08:41:26;5.80;99.90
19449;DHT22;9863;49.404;8.246;2023-02-01T08:43:55;5.80;99.90
19449;DHT22;9863;49.404;8.246;2023-02-01T08:46:23;5.90;99.90
19449;DHT22;9863;49.404;8.246;2023-02-01T08:48:50;5.90;99.90
19449;DHT22;9863;49.404;8.246;2023-02-01T08:51:20;6.00;99.90
19449;DHT22;9863;49.404;8.246;2023-02-01T08:53:48;6.10;99.90
19449;DHT22;9863;49.404;8.246;2023-02-01T08:56:16;6.00;99.90
19449;DHT22;9863;49.404;8.246;2023-02-01T08:58:45;6.10;99.90
19449;DHT22;9863;49.404;8.246;2023-02-01T09:01:16;6.20;99.90
19449;DHT22;9863;49.404;8.246;2023-02-01T09:03:44;6.10;99.90
19449;DHT22;9863;49.404;8.246;2023-02-01T09:06:13;6.20;99.90
19449;DHT22;9863;49.404;8.246;2023-02-01T09:08:42;6.30;99.90
19449;DHT22;9863;49.404;8.246;2023-02-01T09:11:17;6.30;99.90
19449;DHT22;9863;49.404;8.246;2023-02-01T09:13:47;6.30;99.90
19449;DHT22;9863;49.404;8.246;2023-02-01T09:16:14;6.40;99.90
19449;DHT22;9863;49.404;8.246;2023-02-01T09:18:42;6.50;99.90
19449;DHT22;9863;49.404;8.246;2023-02-01T09:21:29;6.50;99.90
19449;DHT22;9863;49.404;8.246;2023-02-01T09:23:56;6.60;99.90
19449;DHT22;9863;49.404;8.246;2023-02-01T09:26:24;6.60;99.90
19449;DHT22;9863;49.404;8.246;2023-02-01T09:28:59;6.60;99.90
19449;DHT22;9863;49.404;8.246;2023-02-01T09:31:26;6.60;99.90
19449;DHT22;9863;49.404;8.246;2023-02-01T09:33:53;6.50;99.90
19449;DHT22;9863;49.404;8.246;2023-02-01T09:36:20;6.50;99.90
19449;DHT22;9863;49.404;8.246;2023-02-01T09:38:48;6.50;99.90
19449;DHT22;9863;49.404;8.246;2023-02-01T09:47:14;6.40;99.90
19449;DHT22;9863;49.404;8.246;2023-02-01T09:49:57;6.40;99.90
19449;DHT22;9863;49.404;8.246;2023-02-01T09:52:43;6.40;99.90
19449;DHT22;9863;49.404;8.246;2023-02-01T09:55:41;6.50;99.90
19449;DHT22;9863;49.404;8.246;2023-02-01T10:00:53;6.50;99.90
19449;DHT22;9863;49.404;8.246;2023-02-01T10:03:26;6.40;99.90
19449;DHT22;9863;49.404;8.246;2023-02-01T10:28:59;6.50;99.90
19449;DHT22;9863;49.404;8.246;2023-02-01T10:31:35;6.50;99.90
19449;DHT22;9863;49.404;8.246;2023-02-01T10:34:31;6.50;99.90
19449;DHT22;9863;49.404;8.246;2023-02-01T10:37:16;6.60;99.90
19449;DHT22;9863;49.404;8.246;2023-02-01T10:39:48;6.70;99.90
19449;DHT22;9863;49.404;8.246;2023-02-01T10:42:23;6.70;99.90
19449;DHT22;9863;49.404;8.246;2023-02-01T10:44:54;6.70;99.90
19449;DHT22;9863;49.404;8.246;2023-02-01T10:47:23;6.70;99.90
19449;DHT22;9863;49.404;8.246;2023-02-01T10:53:02;6.70;99.90
19449;DHT22;9863;49.404;8.246;2023-02-01T10:55:39;6.70;99.90
19449;DHT22;9863;49.404;8.246;2023-02-01T10:58:20;6.70;99.90
19449;DHT22;9863;49.404;8.246;2023-02-01T11:00:52;6.70;99.90
19449;DHT22;9863;49.404;8.246;2023-02-01T11:11:54;6.80;99.90
19449;DHT22;9863;49.404;8.246;2023-02-01T11:14:33;6.80;99.90
19449;DHT22;9863;49.404;8.246;2023-02-01T11:17:21;6.80;99.90
19449;DHT22;9863;49.404;8.246;2023-02-01T11:20:01;6.80;99.90
19449;DHT22;9863;49.404;8.246;2023-02-01T11:22:31;6.80;99.90
19449;DHT22;9863;49.404;8.246;2023-02-01T11:24:59;6.80;99.90
19449;DHT22;9863;49.404;8.246;2023-02-01T11:27:28;6.80;99.90
19449;DHT22;9863;49.404;8.246;2023-02-01T11:29:59;6.80;99.90
19449;DHT22;9863;49.404;8.246;2023-02-01T11:32:27;6.80;99.90
19449;DHT22;9863;49.404;8.246;2023-02-01T11:35:03;6.80;99.90
19449;DHT22;9863;49.404;8.246;2023-02-01T11:37:38;6.80;99.90
19449;DHT22;9863;49.404;8.246;2023-02-01T11:40:29;6.80;99.90
19449;DHT22;9863;49.404;8.246;2023-02-01T11:43:16;6.90;99.90
19449;DHT22;9863;49.404;8.246;2023-02-01T11:46:02;6.90;99.90
19449;DHT22;9863;49.404;8.246;2023-02-01T11:48:33;6.90;99.90
19449;DHT22;9863;49.404;8.246;2023-02-01T11:57:10;6.90;99.90
19449;DHT22;9863;49.404;8.246;2023-02-01T12:02:57;6.90;99.90
19449;DHT22;9863;49.404;8.246;2023-02-01T12:17:54;6.80;99.90
19449;DHT22;9863;49.404;8.246;2023-02-01T12:21:09;6.80;99.90
19449;DHT22;9863;49.404;8.246;2023-02-01T12:32:29;6.90;99.90
19449;DHT22;9863;49.404;8.246;2023-02-01T12:35:26;6.80;99.90
19449;DHT22;9863;49.404;8.246;2023-02-01T12:38:17;6.80;99.90
19449;DHT22;9863;49.404;8.246;2023-02-01T12:44:37;6.80;99.90
19449;DHT22;9863;49.404;8.246;2023-02-01T12:47:38;6.80;99.90
19449;DHT22;9863;49.404;8.246;2023-02-01T12:50:26;6.80;99.90
19449;DHT22;9863;49.404;8.246;2023-02-01T12:55:57;6.90;99.90
19449;DHT22;9863;49.404;8.246;2023-02-01T13:01:07;6.90;99.90
19449;DHT22;9863;49.404;8.246;2023-02-01T13:06:45;6.90;99.90
19449;DHT22;9863;49.404;8.246;2023-02-01T13:11:46;6.90;99.90
19449;DHT22;9863;49.404;8.246;2023-02-01T13:17:21;7.10;99.90
19449;DHT22;9863;49.404;8.246;2023-02-01T13:20:05;7.10;99.90
19449;DHT22;9863;49.404;8.246;2023-02-01T13:23:04;7.20;99.90
19449;DHT22;9863;49.404;8.246;2023-02-01T13:25:51;7.20;99.90
19449;DHT22;9863;49.404;8.246;2023-02-01T13:28:29;7.20;99.90
19449;DHT22;9863;49.404;8.246;2023-02-01T13:43:30;7.10;99.90
19449;DHT22;9863;49.404;8.246;2023-02-01T13:46:05;7.20;99.90
19449;DHT22;9863;49.404;8.246;2023-02-01T13:48:47;7.30;99.90
19449;DHT22;9863;49.404;8.246;2023-02-01T13:51:44;7.30;99.90
19449;DHT22;9863;49.404;8.246;2023-02-01T13:54:42;7.30;99.90
19449;DHT22;9863;49.404;8.246;2023-02-01T13:57:34;7.40;99.90
19449;DHT22;9863;49.404;8.246;2023-02-01T14:10:59;7.70;99.90
19449;DHT22;9863;49.404;8.246;2023-02-01T14:13:38;8.00;99.90
19449;DHT22;9863;49.404;8.246;2023-02-01T14:16:11;8.00;99.90
19449;DHT22;9863;49.404;8.246;2023-02-01T14:34:18;8.50;99.90
19449;DHT22;9863;49.404;8.246;2023-02-01T14:37:13;8.40;99.90
19449;DHT22;9863;49.404;8.246;2023-02-01T15:06:49;8.30;99.90
19449;DHT22;9863;49.404;8.246;2023-02-01T15:09:28;8.10;99.90
19449;DHT22;9863;49.404;8.246;2023-02-01T15:14:36;8.10;99.90
19449;DHT22;9863;49.404;8.246;2023-02-01T15:19:57;7.80;99.90
19449;DHT22;9863;49.404;8.246;2023-02-01T15:22:27;7.80;99.90
19449;DHT22;9863;49.404;8.246;2023-02-01T15:24:59;7.90;99.90
19449;DHT22;9863;49.404;8.246;2023-02-01T15:27:28;7.90;99.90
19449;DHT22;9863;49.404;8.246;2023-02-01T15:30:12;7.90;99.90
19449;DHT22;9863;49.404;8.246;2023-02-01T15:35:32;7.70;99.90
19449;DHT22;9863;49.404;8.246;2023-02-01T15:43:28;7.60;99.90
19449;DHT22;9863;49.404;8.246;2023-02-01T15:45:58;7.60;99.90
19449;DHT22;9863;49.404;8.246;2023-02-01T15:48:32;7.50;99.90
19449;DHT22;9863;49.404;8.246;2023-02-01T15:51:03;7.40;99.90
19449;DHT22;9863;49.404;8.246;2023-02-01T15:53:31;7.40;99.90
19449;DHT22;9863;49.404;8.246;2023-02-01T15:56:01;7.30;99.90
19449;DHT22;9863;49.404;8.246;2023-02-01T15:58:30;7.30;99.90
19449;DHT22;9863;49.404;8.246;2023-02-01T16:01:04;7.20;99.90
19449;DHT22;9863;49.404;8.246;2023-02-01T16:03:41;7.20;99.90
19449;DHT22;9863;49.404;8.246;2023-02-01T16:06:25;7.20;99.90
19449;DHT22;9863;49.404;8.246;2023-02-01T16:09:02;7.10;99.90
19449;DHT22;9863;49.404;8.246;2023-02-01T16:12:00;7.10;99.90
19449;DHT22;9863;49.404;8.246;2023-02-01T16:14:29;7.10;99.90
19449;DHT22;9863;49.404;8.246;2023-02-01T16:16:58;6.90;99.90
19449;DHT22;9863;49.404;8.246;2023-02-01T16:19:25;6.80;99.90
19449;DHT22;9863;49.404;8.246;2023-02-01T16:21:55;6.90;99.90
19449;DHT22;9863;49.404;8.246;2023-02-01T16:24:23;6.80;99.90
19449;DHT22;9863;49.404;8.246;2023-02-01T16:26:52;6.80;99.90
19449;DHT22;9863;49.404;8.246;2023-02-01T16:29:19;6.70;99.90
19449;DHT22;9863;49.404;8.246;2023-02-01T16:31:48;6.60;99.90
19449;DHT22;9863;49.404;8.246;2023-02-01T16:34:17;6.60;99.90
19449;DHT22;9863;49.404;8.246;2023-02-01T16:36:48;6.60;99.90
19449;DHT22;9863;49.404;8.246;2023-02-01T16:39:22;6.70;99.90
19449;DHT22;9863;49.404;8.246;2023-02-01T16:41:50;6.70;99.90
19449;DHT22;9863;49.404;8.246;2023-02-01T16:44:17;6.70;99.90
19449;DHT22;9863;49.404;8.246;2023-02-01T16:46:46;6.60;99.90
19449;DHT22;9863;49.404;8.246;2023-02-01T16:49:24;6.60;99.90
19449;DHT22;9863;49.404;8.246;2023-02-01T16:52:05;6.50;99.90
19449;DHT22;9863;49.404;8.246;2023-02-01T16:54:38;6.50;99.90
19449;DHT22;9863;49.404;8.246;2023-02-01T16:57:18;6.50;99.90
19449;DHT22;9863;49.404;8.246;2023-02-01T16:59:50;6.60;99.90
19449;DHT22;9863;49.404;8.246;2023-02-01T17:02:19;6.70;99.90
19449;DHT22;9863;49.404;8.246;2023-02-01T17:04:47;6.60;99.90
19449;DHT22;9863;49.404;8.246;2023-02-01T17:07:17;6.60;99.90
19449;DHT22;9863;49.404;8.246;2023-02-01T17:09:48;6.60;99.90
19449;DHT22;9863;49.404;8.246;2023-02-01T17:12:30;6.50;99.90
19449;DHT22;9863;49.404;8.246;2023-02-01T17:14:59;6.60;99.90
19449;DHT22;9863;49.404;8.246;2023-02-01T17:17:34;6.60;99.90
19449;DHT22;9863;49.404;8.246;2023-02-01T17:20:06;6.50;99.90
19449;DHT22;9863;49.404;8.246;2023-02-01T17:25:16;6.70;99.90
19449;DHT22;9863;49.404;8.246;2023-02-01T17:30:14;6.40;99.90
19449;DHT22;9863;49.404;8.246;2023-02-01T17:32:47;5.20;99.90
19449;DHT22;9863;49.404;8.246;2023-02-01T17:35:20;6.40;99.90
19449;DHT22;9863;49.404;8.246;2023-02-01T17:37:50;6.60;99.90
19449;DHT22;9863;49.404;8.246;2023-02-01T17:40:20;6.60;99.90
19449;DHT22;9863;49.404;8.246;2023-02-01T17:42:47;6.60;99.90
19449;DHT22;9863;49.404;8.246;2023-02-01T17:45:34;6.50;99.90
19449;DHT22;9863;49.404;8.246;2023-02-01T17:48:04;6.60;99.90
19449;DHT22;9863;49.404;8.246;2023-02-01T17:50:35;6.50;99.90
19449;DHT22;9863;49.404;8.246;2023-02-01T17:53:04;6.50;99.90
19449;DHT22;9863;49.404;8.246;2023-02-01T17:55:39;6.50;99.90
19449;DHT22;9863;49.404;8.246;2023-02-01T17:58:10;6.50;99.90
19449;DHT22;9863;49.404;8.246;2023-02-01T18:00:43;6.50;99.90
19449;DHT22;9863;49.404;8.246;2023-02-01T18:03:27;6.60;99.90
19449;DHT22;9863;49.404;8.246;2023-02-01T18:05:56;6.50;99.90
19449;DHT22;9863;49.404;8.246;2023-02-01T18:08:29;6.50;99.90
19449;DHT22;9863;49.404;8.246;2023-02-01T18:11:04;6.40;99.90
19449;DHT22;9863;49.404;8.246;2023-02-01T18:13:38;6.40;99.90
19449;DHT22;9863;49.404;8.246;2023-02-01T18:16:22;6.50;99.90
19449;DHT22;9863;49.404;8.246;2023-02-01T18:18:52;6.50;99.90
19449;DHT22;9863;49.404;8.246;2023-02-01T18:21:21;6.50;99.90
19449;DHT22;9863;49.404;8.246;2023-02-01T18:23:48;6.50;99.90
19449;DHT22;9863;49.404;8.246;2023-02-01T18:26:17;6.50;99.90
19449;DHT22;9863;49.404;8.246;2023-02-01T18:28:45;6.60;99.90
19449;DHT22;9863;49.404;8.246;2023-02-01T18:31:20;6.50;99.90
19449;DHT22;9863;49.404;8.246;2023-02-01T18:33:51;6.70;99.90
19449;DHT22;9863;49.404;8.246;2023-02-01T18:36:19;6.50;99.90
19449;DHT22;9863;49.404;8.246;2023-02-01T18:38:47;6.50;99.90
19449;DHT22;9863;49.404;8.246;2023-02-01T18:41:17;6.50;99.90
19449;DHT22;9863;49.404;8.246;2023-02-01T18:43:49;6.50;99.90
19449;DHT22;9863;49.404;8.246;2023-02-01T18:46:17;6.40;99.90
19449;DHT22;9863;49.404;8.246;2023-02-01T18:48:45;6.40;99.90
19449;DHT22;9863;49.404;8.246;2023-02-01T18:51:15;6.50;99.90
19449;DHT22;9863;49.404;8.246;2023-02-01T18:53:46;6.50;99.90
19449;DHT22;9863;49.404;8.246;2023-02-01T18:56:15;6.50;99.90
19449;DHT22;9863;49.404;8.246;2023-02-01T18:58:44;6.50;99.90
19449;DHT22;9863;49.404;8.246;2023-02-01T19:01:15;6.50;99.90
19449;DHT22;9863;49.404;8.246;2023-02-01T19:03:46;6.40;99.90
19449;DHT22;9863;49.404;8.246;2023-02-01T19:06:33;6.50;99.90
19449;DHT22;9863;49.404;8.246;2023-02-01T19:09:00;6.50;99.90
19449;DHT22;9863;49.404;8.246;2023-02-01T19:11:28;6.50;99.90
19449;DHT22;9863;49.404;8.246;2023-02-01T19:13:55;6.60;99.90
19449;DHT22;9863;49.404;8.246;2023-02-01T19:16:22;6.60;99.90
19449;DHT22;9863;49.404;8.246;2023-02-01T19:18:50;6.50;99.90
19449;DHT22;9863;49.404;8.246;2023-02-01T19:24:08;6.60;99.90
19449;DHT22;9863;49.404;8.246;2023-02-01T19:26:36;6.60;99.90
19449;DHT22;9863;49.404;8.246;2023-02-01T19:29:03;6.70;99.90
19449;DHT22;9863;49.404;8.246;2023-02-01T19:31:34;6.70;99.90
19449;DHT22;9863;49.404;8.246;2023-02-01T19:34:02;7.60;99.90
19449;DHT22;9863;49.404;8.246;2023-02-01T19:36:40;6.60;99.90
19449;DHT22;9863;49.404;8.246;2023-02-01T19:39:10;7.60;99.90
19449;DHT22;9863;49.404;8.246;2023-02-01T19:41:37;6.70;99.90
19449;DHT22;9863;49.404;8.246;2023-02-01T19:44:04;6.70;99.90
19449;DHT22;9863;49.404;8.246;2023-02-01T19:46:32;6.80;99.90
19449;DHT22;9863;49.404;8.246;2023-02-01T19:48:59;6.70;99.90
19449;DHT22;9863;49.404;8.246;2023-02-01T19:51:27;6.70;99.90
19449;DHT22;9863;49.404;8.246;2023-02-01T19:53:55;6.80;99.90
19449;DHT22;9863;49.404;8.246;2023-02-01T19:56:22;6.70;99.90
19449;DHT22;9863;49.404;8.246;2023-02-01T19:58:50;6.70;99.90
19449;DHT22;9863;49.404;8.246;2023-02-01T20:01:17;6.80;99.90
19449;DHT22;9863;49.404;8.246;2023-02-01T20:03:45;6.70;99.90
19449;DHT22;9863;49.404;8.246;2023-02-01T20:06:13;6.60;99.90
19449;DHT22;9863;49.404;8.246;2023-02-01T20:08:40;6.60;99.90
19449;DHT22;9863;49.404;8.246;2023-02-01T20:11:07;6.70;99.90
19449;DHT22;9863;49.404;8.246;2023-02-01T20:13:35;6.70;99.90
19449;DHT22;9863;49.404;8.246;2023-02-01T20:16:05;6.50;99.90
19449;DHT22;9863;49.404;8.246;2023-02-01T20:18:32;6.40;99.90